Time;durP1;ratioP1;P1;durP2;ratioP2;P2;SDS_P1;SDS_P2;PMS_P1;PMS_P2;Temp;Humidity;BMP_temperature;BMP_pressure;BME280_temperature;BME280_humidity;BME280_pressure;Samples;Min_cycle;Max_cycle;Signal;HPM_P1;HPM_P2
2022/07/09 00:10:41;;;;;;;3.35;1.42;;;;;;;16.46;60.38;100971.47;30979664;28;96827;-63
2022/07/09 00:25:41;;;;;;;6.70;2.17;;;;;;;16.33;60.48;100969.47;30984845;28;97489;-64
2022/07/09 00:40:42;;;;;;;6.53;2.35;;;;;;;16.42;61.07;100957.59;30982649;28;96588;-63
2022/07/09 00:55:46;;;;;;;4.63;2.08;;;;;;;16.46;60.89;100953.50;30982447;28;97040;-63
2022/07/09 01:10:48;;;;;;;5.70;1.83;;;;;;;16.26;61.13;100936.31;30981093;28;97433;-64
2022/07/09 01:25:48;;;;;;;7.20;2.40;;;;;;;15.99;61.40;100925.22;30980078;28;97297;-63
2022/07/09 01:40:48;;;;;;;5.25;2.25;;;;;;;15.36;63.04;100920.22;30972795;28;96913;-63
2022/07/09 01:55:49;;;;;;;5.25;2.15;;;;;;;15.12;63.38;100914.09;30971669;28;101512;-63
2022/07/09 02:10:50;;;;;;;5.70;1.92;;;;;;;15.03;64.63;100893.72;30975803;28;97480;-63
2022/07/09 02:25:50;;;;;;;7.13;2.40;;;;;;;15.00;65.80;100886.88;30974816;28;98340;-63
2022/07/09 02:40:51;;;;;;;5.75;2.20;;;;;;;15.15;65.88;100875.31;30972532;28;96940;-63
2022/07/09 02:55:51;;;;;;;2.78;1.85;;;;;;;15.20;66.36;100879.13;30972193;28;97076;-63
2022/07/09 03:10:51;;;;;;;10.40;2.70;;;;;;;15.23;66.36;100873.38;30983112;28;97428;-63
2022/07/09 03:25:52;;;;;;;5.95;2.38;;;;;;;15.07;66.59;100852.91;30987621;28;96952;-63
2022/07/09 03:40:52;;;;;;;3.95;2.22;;;;;;;15.06;66.54;100839.69;30985736;28;97074;-64
2022/07/09 03:55:52;;;;;;;4.97;2.50;;;;;;;15.18;67.59;100854.31;30981837;28;97647;-63
2022/07/09 04:10:53;;;;;;;6.30;2.40;;;;;;;15.38;67.15;100851.09;30981557;28;96900;-64
2022/07/09 04:25:54;;;;;;;5.03;2.47;;;;;;;15.62;67.33;100838.38;30982553;28;103944;-63
2022/07/09 04:40:54;;;;;;;4.97;2.67;;;;;;;15.96;66.70;100831.56;30980594;28;96795;-63
2022/07/09 04:55:55;;;;;;;4.03;2.20;;;;;;;16.46;66.09;100845.91;30976017;28;97013;-63
2022/07/09 05:10:55;;;;;;;4.95;2.58;;;;;;;16.68;65.67;100843.22;30975537;28;96845;-63
2022/07/09 05:25:55;;;;;;;4.55;2.50;;;;;;;17.01;65.18;100853.44;30973225;28;97623;-63
2022/07/09 05:40:57;;;;;;;6.72;2.58;;;;;;;17.30;64.11;100852.34;30972575;28;103767;-63
2022/07/09 05:55:57;;;;;;;4.27;2.30;;;;;;;17.69;63.74;100821.25;30969258;28;97064;-63
2022/07/09 06:10:58;;;;;;;5.30;1.88;;;;;;;17.88;63.33;100810.75;30971154;28;97763;-64
2022/07/09 06:25:58;;;;;;;5.50;2.67;;;;;;;18.46;61.82;100802.13;30970488;28;96984;-64
2022/07/09 06:40:58;;;;;;;5.75;1.92;;;;;;;19.42;60.46;100789.94;30976073;28;96777;-66
2022/07/09 06:55:59;;;;;;;4.00;1.77;;;;;;;20.52;57.82;100784.47;30988800;28;111605;-64
2022/07/09 07:10:59;;;;;;;3.28;1.40;;;;;;;21.37;54.47;100777.56;30988672;28;96756;-64
2022/07/09 07:26:00;;;;;;;3.92;1.48;;;;;;;20.98;50.67;100776.97;30986218;28;96983;-64
2022/07/09 07:41:00;;;;;;;3.22;1.58;;;;;;;20.59;50.77;100771.69;30982508;28;97350;-64
2022/07/09 07:56:04;;;;;;;3.63;1.65;;;;;;;21.42;47.35;100774.97;30983105;28;97431;-64
2022/07/09 08:11:05;;;;;;;3.53;1.30;;;;;;;21.73;45.22;100765.00;30980546;28;97043;-64
2022/07/09 08:26:05;;;;;;;5.10;1.80;;;;;;;22.53;42.82;100777.34;30983693;28;96798;-65
2022/07/09 08:41:06;;;;;;;4.70;1.43;;;;;;;22.73;41.96;100758.00;30982059;28;98232;-63
2022/07/09 08:56:07;;;;;;;3.47;1.60;;;;;;;23.42;39.71;100749.13;30980744;28;97288;-63
2022/07/09 09:11:22;;;;;;;3.03;1.40;;;;;;;23.98;38.00;100745.81;30974027;28;97134;-63
2022/07/09 09:26:24;;;;;;;6.37;2.30;;;;;;;24.99;36.38;100728.50;30977962;28;96759;-66
2022/07/09 09:41:25;;;;;;;2.90;1.30;;;;;;;24.81;35.15;100709.78;30975716;28;96898;-62
2022/07/09 09:56:28;;;;;;;2.63;1.43;;;;;;;25.20;34.53;100701.50;30974957;28;97275;-66
2022/07/09 10:11:45;;;;;;;2.63;1.50;;;;;;;25.85;33.36;100687.97;30975523;28;96839;-66
2022/07/09 10:26:49;;;;;;;3.23;1.50;;;;;;;27.77;31.02;100669.41;30956829;28;98271;-62
2022/07/09 10:42:04;;;;;;;3.33;1.50;;;;;;;26.65;31.50;100665.28;30987617;28;97597;-62
2022/07/09 10:57:04;;;;;;;1.27;1.10;;;;;;;26.44;31.23;100658.91;30982882;28;96797;-62
2022/07/09 11:12:06;;;;;;;2.70;1.70;;;;;;;26.43;30.54;100651.81;30932266;28;97624;-69
2022/07/09 11:27:08;;;;;;;6.17;2.30;;;;;;;26.78;31.17;100647.63;30861888;28;97419;-68
2022/07/09 11:42:17;;;;;;;2.70;1.70;;;;;;;27.77;30.26;100633.84;30857734;28;97238;-68
2022/07/09 11:57:21;;;;;;;3.03;1.70;;;;;;;29.10;28.34;100618.09;30860820;28;97474;-62
2022/07/09 12:12:22;;;;;;;2.50;1.43;;;;;;;30.20;27.32;100616.91;30858828;28;96719;-68
2022/07/09 12:27:22;;;;;;;2.15;1.30;;;;;;;29.97;26.81;100602.84;30858285;28;97457;-65
2022/07/09 12:42:23;;;;;;;3.88;1.77;;;;;;;29.15;26.88;100598.81;30856568;28;108678;-68
2022/07/09 12:57:23;;;;;;;5.45;2.10;;;;;;;29.02;28.24;100592.06;30855818;28;97419;-66
2022/07/09 13:12:23;;;;;;;6.72;2.85;;;;;;;28.60;29.38;100593.38;30854170;28;96639;-65
2022/07/09 13:27:24;;;;;;;4.78;3.10;;;;;;;27.03;30.89;100584.00;30852374;28;106542;-69
2022/07/09 13:42:24;;;;;;;6.57;3.55;;;;;;;25.39;33.35;100590.19;30851040;28;96768;-63
2022/07/09 13:57:24;;;;;;;4.03;2.95;;;;;;;23.55;36.79;100575.88;30849981;28;96625;-65
2022/07/09 14:12:25;;;;;;;5.55;2.92;;;;;;;22.61;39.74;100569.84;30848392;28;96806;-62
2022/07/09 14:27:25;;;;;;;5.20;2.63;;;;;;;22.28;40.32;100565.84;30847374;28;97397;-69
2022/07/09 14:42:25;;;;;;;4.67;3.10;;;;;;;22.26;41.07;100549.00;30916032;28;96801;-67
2022/07/09 14:57:26;;;;;;;4.43;2.53;;;;;;;22.36;40.84;100543.78;30969885;28;97427;-63
2022/07/09 15:12:26;;;;;;;4.63;3.03;;;;;;;22.25;41.78;100523.75;30989346;28;96796;-62
2022/07/09 15:27:26;;;;;;;4.27;2.67;;;;;;;22.51;41.39;100516.13;30986240;28;97444;-63
2022/07/09 15:42:27;;;;;;;6.23;2.90;;;;;;;22.20;42.15;100492.97;30984976;28;98841;-69
2022/07/09 15:57:27;;;;;;;4.23;2.97;;;;;;;21.82;43.30;100469.94;30985186;28;96704;-64
2022/07/09 16:27:47;;;;;;;5.10;2.73;;;;;;;21.33;44.93;100456.63;30980549;28;97076;-62
2022/07/09 16:42:47;;;;;;;4.17;2.80;;;;;;;21.23;44.35;100452.59;30977757;28;97388;-62
2022/07/09 16:57:49;;;;;;;6.67;4.03;;;;;;;20.99;45.09;100442.81;30978030;28;96992;-65
2022/07/09 17:12:50;;;;;;;7.80;4.27;;;;;;;20.56;45.65;100444.69;30975820;28;97369;-63
2022/07/09 17:27:50;;;;;;;4.50;3.15;;;;;;;20.02;46.70;100421.03;30972830;28;97277;-63
2022/07/09 17:42:51;;;;;;;4.15;3.05;;;;;;;19.98;47.25;100410.91;30972590;28;96887;-68
2022/07/09 17:57:54;;;;;;;5.40;2.20;;;;;;;19.92;47.61;100404.53;30973121;28;96730;-66
2022/07/09 18:12:54;;;;;;;3.90;2.57;;;;;;;19.55;48.01;100399.94;30972086;28;96834;-62
2022/07/09 18:27:54;;;;;;;5.82;2.45;;;;;;;19.02;49.22;100389.66;30970504;28;96785;-67
2022/07/09 18:42:54;;;;;;;3.50;2.35;;;;;;;18.61;50.37;100391.81;30984755;28;115192;-63
2022/07/09 18:58:01;;;;;;;4.53;2.42;;;;;;;18.26;51.21;100382.28;30990505;28;101503;-63
2022/07/09 19:13:01;;;;;;;6.77;3.37;;;;;;;17.96;52.28;100383.88;30988772;28;96678;-64
2022/07/09 19:28:02;;;;;;;4.10;2.28;;;;;;;18.01;52.66;100386.75;30986377;28;102768;-63
2022/07/09 19:43:02;;;;;;;3.70;2.17;;;;;;;17.94;52.79;100381.41;30984221;28;96772;-65
2022/07/09 19:58:02;;;;;;;3.30;1.83;;;;;;;17.84;52.95;100379.13;30982703;28;96811;-67
2022/07/09 20:13:03;;;;;;;3.10;1.85;;;;;;;17.56;53.71;100366.81;30982294;28;97427;-62
2022/07/09 20:28:03;;;;;;;3.47;1.80;;;;;;;17.19;54.67;100381.78;30981553;28;96673;-67
2022/07/09 20:43:04;;;;;;;5.72;1.90;;;;;;;16.81;55.63;100369.78;30979771;28;97271;-69
2022/07/09 20:58:04;;;;;;;3.58;1.83;;;;;;;16.50;56.64;100362.34;30978608;28;96712;-63
2022/07/09 21:13:05;;;;;;;4.43;1.73;;;;;;;16.22;58.23;100380.28;30976499;28;102373;-63
2022/07/09 21:28:05;;;;;;;9.32;2.65;;;;;;;15.94;59.42;100361.56;30976572;28;96793;-62
2022/07/09 21:43:06;;;;;;;5.32;2.42;;;;;;;15.73;60.96;100365.16;30975698;28;96820;-71
2022/07/09 21:58:06;;;;;;;7.22;3.42;;;;;;;15.77;61.97;100369.09;30976015;28;97337;-63
2022/07/09 22:13:07;;;;;;;7.10;3.22;;;;;;;15.67;62.85;100363.28;30983700;28;102776;-64
2022/07/09 22:28:07;;;;;;;4.47;2.10;;;;;;;15.46;63.44;100358.84;30994260;28;96739;-67
2022/07/09 22:43:07;;;;;;;3.53;1.75;;;;;;;15.34;64.45;100347.84;30993021;28;96598;-65
2022/07/09 22:58:08;;;;;;;4.88;2.58;;;;;;;15.30;65.14;100349.25;30992124;28;102086;-64
2022/07/09 23:13:08;;;;;;;5.18;2.47;;;;;;;15.18;65.38;100349.78;30990602;28;96731;-65
2022/07/09 23:28:08;;;;;;;5.40;2.33;;;;;;;15.15;65.96;100331.41;30989336;28;96677;-70
2022/07/09 23:43:09;;;;;;;3.80;1.80;;;;;;;15.04;66.53;100330.09;30990098;28;96912;-64
2022/07/09 23:58:09;;;;;;;2.97;1.70;;;;;;;15.03;66.89;100315.03;30989103;28;97664;-63
